sensor_id;sensor_type;location;lat;lon;timestamp;pressure;altitude;pressure_sealevel;temperature;humidity
57234;BME280;43090;52.604;13.318;2023-01-30T07:22:28;99970.16;;;2.48;100.00
57234;BME280;43090;52.604;13.318;2023-01-30T07:28:54;99950.28;;;2.41;100.00
57234;BME280;43090;52.604;13.318;2023-01-30T07:31:20;99969.69;;;2.58;100.00
57234;BME280;43090;52.604;13.318;2023-01-30T07:33:47;99958.50;;;2.53;100.00
57234;BME280;43090;52.604;13.318;2023-01-30T07:36:14;99962.16;;;2.50;100.00
57234;BME280;43090;52.604;13.318;2023-01-30T07:38:40;99974.84;;;2.61;100.00
57234;BME280;43090;52.604;13.318;2023-01-30T07:41:10;99994.34;;;2.58;100.00
57234;BME280;43090;52.604;13.318;2023-01-30T07:43:36;99947.56;;;2.43;100.00
57234;BME280;43090;52.604;13.318;2023-01-30T07:46:03;99979.97;;;2.64;100.00
57234;BME280;43090;52.604;13.318;2023-01-30T07:48:30;99927.16;;;2.27;100.00
57234;BME280;43090;52.604;13.318;2023-01-30T07:50:56;99983.47;;;2.64;100.00
57234;BME280;43090;52.604;13.318;2023-01-30T07:53:23;99926.25;;;2.28;100.00
57234;BME280;43090;52.604;13.318;2023-01-30T07:55:50;99963.72;;;2.54;100.00
57234;BME280;43090;52.604;13.318;2023-01-30T07:58:16;99999.03;;;2.71;100.00
57234;BME280;43090;52.604;13.318;2023-01-30T08:00:44;99933.25;;;2.29;100.00
57234;BME280;43090;52.604;13.318;2023-01-30T08:03:12;99985.47;;;2.59;100.00
57234;BME280;43090;52.604;13.318;2023-01-30T08:05:44;99996.84;;;2.79;100.00
57234;BME280;43090;52.604;13.318;2023-01-30T08:08:12;99961.09;;;2.54;100.00
57234;BME280;43090;52.604;13.318;2023-01-30T08:10:39;99987.97;;;2.80;100.00
57234;BME280;43090;52.604;13.318;2023-01-30T08:13:05;99990.22;;;2.88;100.00
57234;BME280;43090;52.604;13.318;2023-01-30T08:15:32;99972.88;;;2.64;100.00
57234;BME280;43090;52.604;13.318;2023-01-30T08:17:58;99989.69;;;2.81;100.00
57234;BME280;43090;52.604;13.318;2023-01-30T08:20:26;99918.28;;;2.47;100.00
57234;BME280;43090;52.604;13.318;2023-01-30T08:22:54;99921.66;;;2.49;100.00
57234;BME280;43090;52.604;13.318;2023-01-30T08:25:21;99962.25;;;2.83;100.00
57234;BME280;43090;52.604;13.318;2023-01-30T08:27:48;99950.22;;;2.78;100.00
57234;BME280;43090;52.604;13.318;2023-01-30T08:30:16;99956.88;;;2.85;100.00
57234;BME280;43090;52.604;13.318;2023-01-30T08:32:43;99973.84;;;2.81;100.00
57234;BME280;43090;52.604;13.318;2023-01-30T08:35:14;99969.31;;;2.83;100.00
57234;BME280;43090;52.604;13.318;2023-01-30T08:37:41;99975.00;;;2.93;100.00
57234;BME280;43090;52.604;13.318;2023-01-30T08:40:07;99982.06;;;3.10;100.00
57234;BME280;43090;52.604;13.318;2023-01-30T08:42:35;99965.28;;;2.76;100.00
57234;BME280;43090;52.604;13.318;2023-01-30T08:45:02;99929.28;;;2.73;100.00
57234;BME280;43090;52.604;13.318;2023-01-30T08:47:29;99921.34;;;2.73;100.00
57234;BME280;43090;52.604;13.318;2023-01-30T08:49:56;99919.56;;;2.74;100.00
57234;BME280;43090;52.604;13.318;2023-01-30T08:52:22;99980.34;;;3.09;100.00
57234;BME280;43090;52.604;13.318;2023-01-30T08:54:49;99973.19;;;2.93;100.00
57234;BME280;43090;52.604;13.318;2023-01-30T08:57:15;99915.84;;;2.78;100.00
57234;BME280;43090;52.604;13.318;2023-01-30T08:59:42;99973.03;;;3.14;100.00
57234;BME280;43090;52.604;13.318;2023-01-30T09:02:10;99914.19;;;2.93;100.00
57234;BME280;43090;52.604;13.318;2023-01-30T09:04:37;99926.81;;;3.04;100.00
57234;BME280;43090;52.604;13.318;2023-01-30T09:07:04;99937.22;;;3.24;100.00
57234;BME280;43090;52.604;13.318;2023-01-30T09:09:30;99955.38;;;3.30;100.00
57234;BME280;43090;52.604;13.318;2023-01-30T09:11:57;99989.25;;;3.57;100.00
57234;BME280;43090;52.604;13.318;2023-01-30T09:14:24;99962.22;;;3.34;100.00
57234;BME280;43090;52.604;13.318;2023-01-30T09:16:54;99979.03;;;3.67;100.00
57234;BME280;43090;52.604;13.318;2023-01-30T09:19:25;99958.78;;;3.66;100.00
57234;BME280;43090;52.604;13.318;2023-01-30T09:21:53;99966.91;;;3.79;100.00
57234;BME280;43090;52.604;13.318;2023-01-30T09:24:21;99978.34;;;3.79;100.00
57234;BME280;43090;52.604;13.318;2023-01-30T09:26:56;100003.38;;;4.06;100.00
57234;BME280;43090;52.604;13.318;2023-01-30T09:29:25;99964.44;;;3.76;100.00
57234;BME280;43090;52.604;13.318;2023-01-30T09:35:32;99964.66;;;3.71;100.00
57234;BME280;43090;52.604;13.318;2023-01-30T09:37:58;99981.69;;;3.83;100.00
57234;BME280;43090;52.604;13.318;2023-01-30T09:40:28;99993.91;;;3.86;100.00
57234;BME280;43090;52.604;13.318;2023-01-30T09:46:17;99966.81;;;3.64;100.00
57234;BME280;43090;52.604;13.318;2023-01-30T09:54:14;99990.66;;;3.96;100.00
57234;BME280;43090;52.604;13.318;2023-01-30T09:56:42;99966.72;;;3.98;100.00
57234;BME280;43090;52.604;13.318;2023-01-30T09:59:19;99960.91;;;3.75;100.00
57234;BME280;43090;52.604;13.318;2023-01-30T10:02:05;99993.72;;;4.05;100.00
57234;BME280;43090;52.604;13.318;2023-01-30T10:04:45;99976.19;;;3.86;100.00
57234;BME280;43090;52.604;13.318;2023-01-30T10:07:38;99961.41;;;3.82;100.00
57234;BME280;43090;52.604;13.318;2023-01-30T10:11:07;99969.78;;;3.90;100.00
57234;BME280;43090;52.604;13.318;2023-01-30T10:13:42;99968.19;;;4.04;100.00
57234;BME280;43090;52.604;13.318;2023-01-30T10:16:27;99982.78;;;4.11;100.00
57234;BME280;43090;52.604;13.318;2023-01-30T10:22:17;99993.44;;;4.41;100.00
57234;BME280;43090;52.604;13.318;2023-01-30T10:24:58;99973.78;;;4.29;100.00
57234;BME280;43090;52.604;13.318;2023-01-30T10:27:29;99965.66;;;4.32;100.00
57234;BME280;43090;52.604;13.318;2023-01-30T10:29:59;99984.41;;;4.60;100.00
57234;BME280;43090;52.604;13.318;2023-01-30T10:32:29;99952.69;;;4.28;100.00
57234;BME280;43090;52.604;13.318;2023-01-30T10:35:03;99972.53;;;4.51;100.00
57234;BME280;43090;52.604;13.318;2023-01-30T10:37:41;99924.25;;;4.15;100.00
57234;BME280;43090;52.604;13.318;2023-01-30T10:40:30;99953.97;;;4.37;100.00
57234;BME280;43090;52.604;13.318;2023-01-30T10:43:08;99962.63;;;4.55;100.00
57234;BME280;43090;52.604;13.318;2023-01-30T10:51:23;99942.53;;;4.20;100.00
57234;BME280;43090;52.604;13.318;2023-01-30T10:54:16;99957.66;;;4.18;100.00
57234;BME280;43090;52.604;13.318;2023-01-30T10:56:51;99951.59;;;4.16;100.00
57234;BME280;43090;52.604;13.318;2023-01-30T10:59:31;99966.44;;;4.34;100.00
57234;BME280;43090;52.604;13.318;2023-01-30T11:05:18;99933.19;;;4.29;100.00
57234;BME280;43090;52.604;13.318;2023-01-30T11:07:47;99920.72;;;4.15;100.00
57234;BME280;43090;52.604;13.318;2023-01-30T11:10:22;99943.56;;;4.48;100.00
57234;BME280;43090;52.604;13.318;2023-01-30T11:13:13;99910.47;;;4.25;99.93
57234;BME280;43090;52.604;13.318;2023-01-30T11:15:43;99917.66;;;4.53;99.21
57234;BME280;43090;52.604;13.318;2023-01-30T11:18:11;99907.72;;;4.57;96.62
57234;BME280;43090;52.604;13.318;2023-01-30T11:21:07;99902.31;;;4.58;96.03
57234;BME280;43090;52.604;13.318;2023-01-30T11:23:41;99890.03;;;4.72;94.80
57234;BME280;43090;52.604;13.318;2023-01-30T11:26:34;99911.94;;;4.90;93.84
57234;BME280;43090;52.604;13.318;2023-01-30T11:29:30;99883.66;;;4.60;94.61
57234;BME280;43090;52.604;13.318;2023-01-30T11:32:12;99902.25;;;4.74;94.14
57234;BME280;43090;52.604;13.318;2023-01-30T11:34:42;99865.91;;;4.31;94.92
57234;BME280;43090;52.604;13.318;2023-01-30T11:37:34;99878.94;;;4.65;94.60
57234;BME280;43090;52.604;13.318;2023-01-30T11:40:22;99876.06;;;4.54;95.18
57234;BME280;43090;52.604;13.318;2023-01-30T11:43:14;99885.56;;;4.72;95.42
57234;BME280;43090;52.604;13.318;2023-01-30T11:45:43;99867.09;;;4.71;93.92
57234;BME280;43090;52.604;13.318;2023-01-30T11:48:16;99864.06;;;4.62;93.47
57234;BME280;43090;52.604;13.318;2023-01-30T11:51:05;99853.44;;;4.48;92.97
57234;BME280;43090;52.604;13.318;2023-01-30T11:56:22;99881.72;;;4.33;95.22
57234;BME280;43090;52.604;13.318;2023-01-30T11:59:20;99902.03;;;4.32;97.91
57234;BME280;43090;52.604;13.318;2023-01-30T12:01:48;99894.88;;;4.34;99.29
57234;BME280;43090;52.604;13.318;2023-01-30T12:04:15;99889.22;;;4.10;100.00
57234;BME280;43090;52.604;13.318;2023-01-30T12:06:42;99870.56;;;3.81;100.00
57234;BME280;43090;52.604;13.318;2023-01-30T12:09:31;99874.22;;;4.25;100.00
57234;BME280;43090;52.604;13.318;2023-01-30T12:11:58;99861.56;;;4.30;100.00
57234;BME280;43090;52.604;13.318;2023-01-30T12:14:44;99875.31;;;4.52;100.00
57234;BME280;43090;52.604;13.318;2023-01-30T12:17:22;99858.75;;;4.62;98.38
57234;BME280;43090;52.604;13.318;2023-01-30T12:20:11;99870.31;;;4.76;97.73
57234;BME280;43090;52.604;13.318;2023-01-30T12:22:50;99850.84;;;4.91;98.51
57234;BME280;43090;52.604;13.318;2023-01-30T12:25:26;99835.28;;;4.71;95.80
57234;BME280;43090;52.604;13.318;2023-01-30T12:30:50;99831.13;;;4.81;94.19
57234;BME280;43090;52.604;13.318;2023-01-30T12:33:20;99814.06;;;4.85;96.48
57234;BME280;43090;52.604;13.318;2023-01-30T12:38:48;99790.75;;;4.90;93.42
57234;BME280;43090;52.604;13.318;2023-01-30T12:41:37;99820.31;;;4.84;92.65
57234;BME280;43090;52.604;13.318;2023-01-30T12:55:49;99784.50;;;5.06;87.30
57234;BME280;43090;52.604;13.318;2023-01-30T12:58:40;99805.25;;;5.13;87.84
57234;BME280;43090;52.604;13.318;2023-01-30T13:04:19;99798.72;;;5.05;90.49
57234;BME280;43090;52.604;13.318;2023-01-30T13:12:36;99784.31;;;4.80;87.62
57234;BME280;43090;52.604;13.318;2023-01-30T13:15:10;99801.16;;;4.93;88.50
57234;BME280;43090;52.604;13.318;2023-01-30T13:18:14;99767.69;;;4.78;86.73
57234;BME280;43090;52.604;13.318;2023-01-30T13:26:38;99759.19;;;5.00;85.74
57234;BME280;43090;52.604;13.318;2023-01-30T13:29:25;99749.13;;;4.78;85.50
57234;BME280;43090;52.604;13.318;2023-01-30T13:31:56;99759.72;;;4.78;86.01
57234;BME280;43090;52.604;13.318;2023-01-30T13:34:40;99750.22;;;4.88;85.11
57234;BME280;43090;52.604;13.318;2023-01-30T13:37:11;99763.56;;;4.87;84.84
57234;BME280;43090;52.604;13.318;2023-01-30T13:40:40;99768.63;;;4.77;86.60
57234;BME280;43090;52.604;13.318;2023-01-30T13:42:44;99795.34;;;4.74;86.59
57234;BME280;43090;52.604;13.318;2023-01-30T13:45:18;99797.97;;;4.59;90.31
57234;BME280;43090;52.604;13.318;2023-01-30T13:47:57;99811.69;;;4.52;92.09
57234;BME280;43090;52.604;13.318;2023-01-30T13:54:04;99790.56;;;4.21;96.97
57234;BME280;43090;52.604;13.318;2023-01-30T13:59:25;99821.56;;;3.89;100.00
57234;BME280;43090;52.604;13.318;2023-01-30T14:07:11;99829.22;;;3.79;100.00
57234;BME280;43090;52.604;13.318;2023-01-30T14:10:04;99861.38;;;3.87;100.00
57234;BME280;43090;52.604;13.318;2023-01-30T14:12:50;99848.38;;;3.68;100.00
57234;BME280;43090;52.604;13.318;2023-01-30T14:15:25;99858.59;;;3.58;100.00
57234;BME280;43090;52.604;13.318;2023-01-30T14:20:29;99844.25;;;3.62;100.00
57234;BME280;43090;52.604;13.318;2023-01-30T14:23:05;99869.53;;;3.68;100.00
57234;BME280;43090;52.604;13.318;2023-01-30T14:25:52;99885.50;;;3.50;100.00
57234;BME280;43090;52.604;13.318;2023-01-30T14:30:59;99886.44;;;3.65;100.00
57234;BME280;43090;52.604;13.318;2023-01-30T14:38:34;99918.03;;;3.84;100.00
57234;BME280;43090;52.604;13.318;2023-01-30T14:57:03;99939.13;;;3.86;100.00
57234;BME280;43090;52.604;13.318;2023-01-30T14:59:39;99926.50;;;3.75;100.00
57234;BME280;43090;52.604;13.318;2023-01-30T15:02:30;99916.00;;;3.58;100.00
57234;BME280;43090;52.604;13.318;2023-01-30T15:10:05;99935.28;;;3.60;100.00
57234;BME280;43090;52.604;13.318;2023-01-30T15:15:25;99931.69;;;3.61;100.00
57234;BME280;43090;52.604;13.318;2023-01-30T15:24:20;99952.53;;;3.51;100.00
57234;BME280;43090;52.604;13.318;2023-01-30T15:27:37;99939.28;;;3.51;100.00
57234;BME280;43090;52.604;13.318;2023-01-30T15:30:38;99940.56;;;3.44;100.00
57234;BME280;43090;52.604;13.318;2023-01-30T15:33:15;99961.56;;;3.47;100.00
57234;BME280;43090;52.604;13.318;2023-01-30T15:35:54;99943.81;;;3.49;100.00
57234;BME280;43090;52.604;13.318;2023-01-30T15:38:30;99951.91;;;3.30;100.00
57234;BME280;43090;52.604;13.318;2023-01-30T15:41:02;99946.50;;;3.31;100.00
57234;BME280;43090;52.604;13.318;2023-01-30T15:44:00;99972.47;;;3.41;100.00
57234;BME280;43090;52.604;13.318;2023-01-30T15:52:01;99961.16;;;3.21;100.00
57234;BME280;43090;52.604;13.318;2023-01-30T15:54:28;99991.63;;;3.12;100.00
57234;BME280;43090;52.604;13.318;2023-01-30T15:56:54;99997.72;;;3.30;100.00
57234;BME280;43090;52.604;13.318;2023-01-30T16:02:03;99985.59;;;3.26;100.00
57234;BME280;43090;52.604;13.318;2023-01-30T16:04:30;99991.81;;;3.25;100.00
57234;BME280;43090;52.604;13.318;2023-01-30T16:06:57;100020.78;;;3.28;100.00
57234;BME280;43090;52.604;13.318;2023-01-30T16:09:30;99964.75;;;3.20;100.00
57234;BME280;43090;52.604;13.318;2023-01-30T16:11:59;100010.16;;;3.46;100.00
57234;BME280;43090;52.604;13.318;2023-01-30T16:14:34;99974.56;;;3.18;100.00
57234;BME280;43090;52.604;13.318;2023-01-30T16:17:05;100027.44;;;3.36;100.00
57234;BME280;43090;52.604;13.318;2023-01-30T16:19:34;99984.31;;;3.00;100.00
57234;BME280;43090;52.604;13.318;2023-01-30T16:22:15;100015.09;;;3.19;100.00
57234;BME280;43090;52.604;13.318;2023-01-30T16:24:49;100021.25;;;3.19;100.00
57234;BME280;43090;52.604;13.318;2023-01-30T16:27:22;100042.47;;;3.35;100.00
57234;BME280;43090;52.604;13.318;2023-01-30T16:29:55;100033.22;;;3.26;100.00
57234;BME280;43090;52.604;13.318;2023-01-30T16:32:27;100048.38;;;3.40;100.00
57234;BME280;43090;52.604;13.318;2023-01-30T16:37:55;100009.25;;;3.12;100.00
57234;BME280;43090;52.604;13.318;2023-01-30T16:40:30;100024.50;;;3.07;100.00
57234;BME280;43090;52.604;13.318;2023-01-30T16:43:02;100061.09;;;3.33;100.00
57234;BME280;43090;52.604;13.318;2023-01-30T16:56:14;100085.88;;;3.13;100.00
57234;BME280;43090;52.604;13.318;2023-01-30T16:58:48;100071.38;;;3.05;100.00
57234;BME280;43090;52.604;13.318;2023-01-30T17:01:15;100053.16;;;2.98;100.00
57234;BME280;43090;52.604;13.318;2023-01-30T17:03:49;100099.19;;;3.12;100.00
57234;BME280;43090;52.604;13.318;2023-01-30T17:06:33;100066.53;;;2.95;100.00
57234;BME280;43090;52.604;13.318;2023-01-30T17:09:01;100126.91;;;3.22;100.00
57234;BME280;43090;52.604;13.318;2023-01-30T17:11:41;100116.00;;;3.11;100.00
57234;BME280;43090;52.604;13.318;2023-01-30T17:16:44;100120.81;;;3.20;100.00
57234;BME280;43090;52.604;13.318;2023-01-30T17:22:52;100133.44;;;3.32;100.00
57234;BME280;43090;52.604;13.318;2023-01-30T17:29:16;100163.41;;;3.33;100.00
57234;BME280;43090;52.604;13.318;2023-01-30T17:35:50;100160.03;;;3.29;100.00
57234;BME280;43090;52.604;13.318;2023-01-30T17:42:11;100164.97;;;3.37;100.00
57234;BME280;43090;52.604;13.318;2023-01-30T17:44:39;100185.28;;;3.37;100.00
57234;BME280;43090;52.604;13.318;2023-01-30T17:50:53;100187.31;;;3.49;100.00
57234;BME280;43090;52.604;13.318;2023-01-30T17:57:20;100208.81;;;3.60;100.00
57234;BME280;43090;52.604;13.318;2023-01-30T18:03:34;100204.13;;;3.65;100.00
57234;BME280;43090;52.604;13.318;2023-01-30T18:06:00;100205.38;;;3.58;100.00
57234;BME280;43090;52.604;13.318;2023-01-30T18:12:14;100248.28;;;3.82;100.00
57234;BME280;43090;52.604;13.318;2023-01-30T18:18:21;100263.00;;;3.88;100.00
57234;BME280;43090;52.604;13.318;2023-01-30T18:20:48;100268.53;;;3.83;100.00
57234;BME280;43090;52.604;13.318;2023-01-30T18:31:28;100253.44;;;3.86;99.68
57234;BME280;43090;52.604;13.318;2023-01-30T18:37:42;100281.47;;;4.07;95.66
57234;BME280;43090;52.604;13.318;2023-01-30T18:40:09;100279.34;;;4.14;95.29
57234;BME280;43090;52.604;13.318;2023-01-30T18:42:38;100301.34;;;4.16;94.58
57234;BME280;43090;52.604;13.318;2023-01-30T18:48:46;100319.25;;;4.11;94.40
57234;BME280;43090;52.604;13.318;2023-01-30T18:51:18;100294.03;;;4.04;93.83
57234;BME280;43090;52.604;13.318;2023-01-30T18:57:32;100319.00;;;3.98;93.87
57234;BME280;43090;52.604;13.318;2023-01-30T19:03:40;100356.44;;;4.27;92.47
57234;BME280;43090;52.604;13.318;2023-01-30T19:06:11;100325.66;;;4.07;90.65
57234;BME280;43090;52.604;13.318;2023-01-30T19:12:29;100374.34;;;4.22;88.11
57234;BME280;43090;52.604;13.318;2023-01-30T19:19:25;100369.44;;;4.14;87.02
57234;BME280;43090;52.604;13.318;2023-01-30T19:29:45;100388.75;;;3.98;84.28
57234;BME280;43090;52.604;13.318;2023-01-30T19:32:12;100425.72;;;4.19;84.15
57234;BME280;43090;52.604;13.318;2023-01-30T19:34:41;100396.56;;;4.02;85.11
57234;BME280;43090;52.604;13.318;2023-01-30T19:37:08;100425.72;;;4.19;84.01
57234;BME280;43090;52.604;13.318;2023-01-30T19:39:35;100428.91;;;4.26;83.29
57234;BME280;43090;52.604;13.318;2023-01-30T19:42:01;100401.63;;;4.06;83.52
57234;BME280;43090;52.604;13.318;2023-01-30T19:44:28;100433.13;;;4.30;81.14
57234;BME280;43090;52.604;13.318;2023-01-30T19:47:00;100409.00;;;3.99;81.65
57234;BME280;43090;52.604;13.318;2023-01-30T19:49:27;100436.47;;;4.16;82.03
57234;BME280;43090;52.604;13.318;2023-01-30T19:51:53;100429.06;;;4.05;81.89
57234;BME280;43090;52.604;13.318;2023-01-30T19:54:22;100399.50;;;3.95;81.81
57234;BME280;43090;52.604;13.318;2023-01-30T19:56:48;100448.38;;;4.07;83.42
57234;BME280;43090;52.604;13.318;2023-01-30T19:59:15;100419.72;;;3.60;84.67
57234;BME280;43090;52.604;13.318;2023-01-30T20:01:41;100456.56;;;4.03;84.11
57234;BME280;43090;52.604;13.318;2023-01-30T20:04:08;100445.28;;;3.61;86.03
57234;BME280;43090;52.604;13.318;2023-01-30T20:06:35;100473.44;;;3.81;86.47
57234;BME280;43090;52.604;13.318;2023-01-30T20:09:13;100470.66;;;3.65;87.68
57234;BME280;43090;52.604;13.318;2023-01-30T20:11:55;100435.13;;;3.52;88.69
57234;BME280;43090;52.604;13.318;2023-01-30T20:14:22;100452.38;;;3.60;88.94
57234;BME280;43090;52.604;13.318;2023-01-30T20:17:06;100438.56;;;3.54;88.96
57234;BME280;43090;52.604;13.318;2023-01-30T20:19:39;100435.53;;;3.42;88.82
57234;BME280;43090;52.604;13.318;2023-01-30T20:22:05;100497.09;;;3.86;88.81
57234;BME280;43090;52.604;13.318;2023-01-30T20:24:36;100480.50;;;3.63;89.65
57234;BME280;43090;52.604;13.318;2023-01-30T20:27:03;100505.13;;;3.84;87.50
57234;BME280;43090;52.604;13.318;2023-01-30T20:29:32;100507.97;;;3.98;86.57
57234;BME280;43090;52.604;13.318;2023-01-30T20:32:02;100522.88;;;4.01;86.96
57234;BME280;43090;52.604;13.318;2023-01-30T20:34:34;100531.94;;;3.95;85.94
57234;BME280;43090;52.604;13.318;2023-01-30T20:37:01;100499.16;;;3.79;85.58
57234;BME280;43090;52.604;13.318;2023-01-30T20:39:31;100531.72;;;4.00;85.23
57234;BME280;43090;52.604;13.318;2023-01-30T20:41:57;100498.88;;;3.85;84.92
57234;BME280;43090;52.604;13.318;2023-01-30T20:44:24;100519.91;;;3.88;83.27
57234;BME280;43090;52.604;13.318;2023-01-30T20:46:51;100519.72;;;3.74;82.97
57234;BME280;43090;52.604;13.318;2023-01-30T20:49:19;100539.31;;;3.89;81.72
57234;BME280;43090;52.604;13.318;2023-01-30T20:51:48;100544.03;;;3.82;81.45
57234;BME280;43090;52.604;13.318;2023-01-30T20:54:16;100551.28;;;3.97;80.72
57234;BME280;43090;52.604;13.318;2023-01-30T20:56:50;100547.25;;;3.89;80.39
57234;BME280;43090;52.604;13.318;2023-01-30T20:59:28;100506.09;;;3.62;80.09
57234;BME280;43090;52.604;13.318;2023-01-30T21:01:55;100544.91;;;3.82;78.55
57234;BME280;43090;52.604;13.318;2023-01-30T21:04:22;100575.28;;;3.94;79.15
57234;BME280;43090;52.604;13.318;2023-01-30T21:06:50;100584.22;;;3.92;79.22
57234;BME280;43090;52.604;13.318;2023-01-30T21:09:21;100547.25;;;3.70;79.69
57234;BME280;43090;52.604;13.318;2023-01-30T21:11:49;100591.94;;;3.96;78.67
57234;BME280;43090;52.604;13.318;2023-01-30T21:14:23;100548.91;;;3.72;78.34
57234;BME280;43090;52.604;13.318;2023-01-30T21:16:54;100604.13;;;4.00;78.32
57234;BME280;43090;52.604;13.318;2023-01-30T21:23:11;100612.13;;;3.99;77.91
57234;BME280;43090;52.604;13.318;2023-01-30T21:25:38;100583.06;;;3.78;77.78
57234;BME280;43090;52.604;13.318;2023-01-30T21:31:40;100630.75;;;3.97;78.59
57234;BME280;43090;52.604;13.318;2023-01-30T21:41:02;100620.84;;;3.82;79.29
57234;BME280;43090;52.604;13.318;2023-01-30T21:47:34;100623.63;;;3.79;79.34
57234;BME280;43090;52.604;13.318;2023-01-30T22:01:04;100665.34;;;3.53;79.37
57234;BME280;43090;52.604;13.318;2023-01-30T22:07:18;100663.19;;;3.20;82.38
57234;BME280;43090;52.604;13.318;2023-01-30T22:09:45;100675.06;;;3.32;81.90
57234;BME280;43090;52.604;13.318;2023-01-30T22:16:04;100681.16;;;2.91;85.17
57234;BME280;43090;52.604;13.318;2023-01-30T22:22:20;100693.00;;;3.03;83.51
57234;BME280;43090;52.604;13.318;2023-01-30T22:28:36;100697.38;;;2.82;83.23
57234;BME280;43090;52.604;13.318;2023-01-30T22:35:08;100697.78;;;2.71;83.31
57234;BME280;43090;52.604;13.318;2023-01-30T22:41:24;100718.53;;;2.82;84.32
57234;BME280;43090;52.604;13.318;2023-01-30T22:47:38;100716.69;;;2.60;85.61
57234;BME280;43090;52.604;13.318;2023-01-30T22:53:56;100731.50;;;2.66;86.49
57234;BME280;43090;52.604;13.318;2023-01-30T23:00:04;100722.00;;;2.60;86.19
57234;BME280;43090;52.604;13.318;2023-01-30T23:06:22;100737.69;;;2.41;87.25
57234;BME280;43090;52.604;13.318;2023-01-30T23:08:53;100720.78;;;2.45;87.15
57234;BME280;43090;52.604;13.318;2023-01-30T23:15:00;100755.78;;;2.52;86.65
57234;BME280;43090;52.604;13.318;2023-01-30T23:21:14;100762.25;;;2.43;86.75
57234;BME280;43090;52.604;13.318;2023-01-30T23:23:41;100758.56;;;2.49;87.66
57234;BME280;43090;52.604;13.318;2023-01-30T23:29:49;100763.47;;;2.35;86.92
57234;BME280;43090;52.604;13.318;2023-01-30T23:36:04;100790.88;;;2.32;88.48
57234;BME280;43090;52.604;13.318;2023-01-30T23:38:32;100790.66;;;2.38;87.71
57234;BME280;43090;52.604;13.318;2023-01-30T23:48:04;100773.69;;;2.20;87.30
57234;BME280;43090;52.604;13.318;2023-01-30T23:54:17;100763.56;;;2.08;87.70
